sensor_id;sensor_type;location;lat;lon;timestamp;P1;durP1;ratioP1;P2;durP2;ratioP2
13435;SDS011;6790;49.520;8.504;2023-09-18T00:00:01;8.93;;;8.23;;
13435;SDS011;6790;49.520;8.504;2023-09-18T00:02:37;12.68;;;11.75;;
13435;SDS011;6790;49.520;8.504;2023-09-18T00:05:03;7.32;;;6.72;;
13435;SDS011;6790;49.520;8.504;2023-09-18T00:07:29;9.38;;;8.48;;
13435;SDS011;6790;49.520;8.504;2023-09-18T00:09:55;8.27;;;7.63;;
13435;SDS011;6790;49.520;8.504;2023-09-18T00:12:21;11.10;;;10.40;;
13435;SDS011;6790;49.520;8.504;2023-09-18T00:14:49;13.25;;;12.43;;
13435;SDS011;6790;49.520;8.504;2023-09-18T00:17:16;11.40;;;10.57;;
13435;SDS011;6790;49.520;8.504;2023-09-18T00:19:44;7.65;;;7.15;;
13435;SDS011;6790;49.520;8.504;2023-09-18T00:22:10;8.77;;;8.02;;
13435;SDS011;6790;49.520;8.504;2023-09-18T00:24:36;10.70;;;9.85;;
13435;SDS011;6790;49.520;8.504;2023-09-18T00:27:02;11.68;;;10.95;;
13435;SDS011;6790;49.520;8.504;2023-09-18T00:29:28;13.27;;;12.40;;
13435;SDS011;6790;49.520;8.504;2023-09-18T00:31:54;13.35;;;12.38;;
13435;SDS011;6790;49.520;8.504;2023-09-18T00:34:19;7.82;;;7.18;;
13435;SDS011;6790;49.520;8.504;2023-09-18T00:36:45;8.45;;;7.88;;
13435;SDS011;6790;49.520;8.504;2023-09-18T00:39:11;10.27;;;9.57;;
13435;SDS011;6790;49.520;8.504;2023-09-18T00:41:36;8.65;;;8.13;;
13435;SDS011;6790;49.520;8.504;2023-09-18T00:44:03;15.80;;;14.85;;
13435;SDS011;6790;49.520;8.504;2023-09-18T00:46:30;8.20;;;7.63;;
13435;SDS011;6790;49.520;8.504;2023-09-18T00:48:56;11.35;;;10.60;;
13435;SDS011;6790;49.520;8.504;2023-09-18T00:51:22;9.73;;;9.10;;
13435;SDS011;6790;49.520;8.504;2023-09-18T00:53:47;15.25;;;14.25;;
13435;SDS011;6790;49.520;8.504;2023-09-18T00:56:14;14.52;;;13.52;;
13435;SDS011;6790;49.520;8.504;2023-09-18T00:58:41;9.27;;;8.50;;
13435;SDS011;6790;49.520;8.504;2023-09-18T01:01:07;11.45;;;10.75;;
13435;SDS011;6790;49.520;8.504;2023-09-18T01:03:34;16.13;;;15.05;;
13435;SDS011;6790;49.520;8.504;2023-09-18T01:06:00;14.73;;;13.73;;
13435;SDS011;6790;49.520;8.504;2023-09-18T01:08:26;12.52;;;11.77;;
13435;SDS011;6790;49.520;8.504;2023-09-18T01:11:04;15.98;;;14.95;;
13435;SDS011;6790;49.520;8.504;2023-09-18T01:13:49;18.23;;;17.10;;
13435;SDS011;6790;49.520;8.504;2023-09-18T01:16:39;12.35;;;11.38;;
13435;SDS011;6790;49.520;8.504;2023-09-18T01:19:15;13.70;;;12.63;;
13435;SDS011;6790;49.520;8.504;2023-09-18T01:21:41;11.30;;;10.60;;
13435;SDS011;6790;49.520;8.504;2023-09-18T01:24:10;13.00;;;12.18;;
13435;SDS011;6790;49.520;8.504;2023-09-18T01:26:36;21.00;;;19.70;;
13435;SDS011;6790;49.520;8.504;2023-09-18T01:29:02;13.35;;;12.27;;
13435;SDS011;6790;49.520;8.504;2023-09-18T01:31:27;13.75;;;12.90;;
13435;SDS011;6790;49.520;8.504;2023-09-18T01:33:53;20.90;;;19.65;;
13435;SDS011;6790;49.520;8.504;2023-09-18T01:36:19;13.98;;;13.20;;
13435;SDS011;6790;49.520;8.504;2023-09-18T01:38:46;18.17;;;17.13;;
13435;SDS011;6790;49.520;8.504;2023-09-18T01:41:11;16.58;;;15.52;;
13435;SDS011;6790;49.520;8.504;2023-09-18T01:43:37;16.27;;;15.23;;
13435;SDS011;6790;49.520;8.504;2023-09-18T01:46:03;15.73;;;14.77;;
13435;SDS011;6790;49.520;8.504;2023-09-18T01:48:29;11.55;;;10.80;;
13435;SDS011;6790;49.520;8.504;2023-09-18T01:50:55;17.65;;;16.50;;
13435;SDS011;6790;49.520;8.504;2023-09-18T01:53:21;13.05;;;12.23;;
13435;SDS011;6790;49.520;8.504;2023-09-18T01:55:47;12.93;;;12.15;;
13435;SDS011;6790;49.520;8.504;2023-09-18T01:58:13;16.30;;;15.30;;
13435;SDS011;6790;49.520;8.504;2023-09-18T02:00:39;19.88;;;18.48;;
13435;SDS011;6790;49.520;8.504;2023-09-18T02:03:05;13.77;;;12.88;;
13435;SDS011;6790;49.520;8.504;2023-09-18T02:05:30;16.98;;;15.82;;
13435;SDS011;6790;49.520;8.504;2023-09-18T02:07:57;17.75;;;16.58;;
13435;SDS011;6790;49.520;8.504;2023-09-18T02:10:23;13.70;;;12.85;;
13435;SDS011;6790;49.520;8.504;2023-09-18T02:12:48;16.48;;;15.43;;
13435;SDS011;6790;49.520;8.504;2023-09-18T02:15:15;15.63;;;14.43;;
13435;SDS011;6790;49.520;8.504;2023-09-18T02:17:41;17.90;;;16.67;;
13435;SDS011;6790;49.520;8.504;2023-09-18T02:20:08;14.10;;;13.15;;
13435;SDS011;6790;49.520;8.504;2023-09-18T02:22:36;12.70;;;11.93;;
13435;SDS011;6790;49.520;8.504;2023-09-18T02:25:04;14.13;;;13.18;;
13435;SDS011;6790;49.520;8.504;2023-09-18T02:27:31;12.02;;;11.13;;
13435;SDS011;6790;49.520;8.504;2023-09-18T02:29:56;14.77;;;13.70;;
13435;SDS011;6790;49.520;8.504;2023-09-18T02:32:22;13.77;;;12.85;;
13435;SDS011;6790;49.520;8.504;2023-09-18T02:34:48;14.85;;;13.73;;
13435;SDS011;6790;49.520;8.504;2023-09-18T02:37:13;10.50;;;9.82;;
13435;SDS011;6790;49.520;8.504;2023-09-18T02:39:39;17.27;;;16.00;;
13435;SDS011;6790;49.520;8.504;2023-09-18T02:42:05;16.40;;;15.15;;
13435;SDS011;6790;49.520;8.504;2023-09-18T02:44:31;12.40;;;11.57;;
13435;SDS011;6790;49.520;8.504;2023-09-18T02:46:57;11.23;;;10.27;;
13435;SDS011;6790;49.520;8.504;2023-09-18T02:49:23;16.60;;;15.27;;
13435;SDS011;6790;49.520;8.504;2023-09-18T02:51:49;11.65;;;10.77;;
13435;SDS011;6790;49.520;8.504;2023-09-18T02:54:14;11.20;;;10.40;;
13435;SDS011;6790;49.520;8.504;2023-09-18T02:56:40;14.55;;;13.50;;
13435;SDS011;6790;49.520;8.504;2023-09-18T02:59:06;11.25;;;10.32;;
13435;SDS011;6790;49.520;8.504;2023-09-18T03:01:32;11.77;;;10.70;;
13435;SDS011;6790;49.520;8.504;2023-09-18T03:03:57;16.38;;;15.18;;
13435;SDS011;6790;49.520;8.504;2023-09-18T03:06:23;13.27;;;11.98;;
13435;SDS011;6790;49.520;8.504;2023-09-18T03:08:49;13.60;;;12.52;;
13435;SDS011;6790;49.520;8.504;2023-09-18T03:11:14;15.82;;;14.70;;
13435;SDS011;6790;49.520;8.504;2023-09-18T03:13:45;14.00;;;12.98;;
13435;SDS011;6790;49.520;8.504;2023-09-18T03:16:11;8.60;;;7.97;;
13435;SDS011;6790;49.520;8.504;2023-09-18T03:18:37;17.13;;;15.95;;
13435;SDS011;6790;49.520;8.504;2023-09-18T03:21:03;11.20;;;10.30;;
13435;SDS011;6790;49.520;8.504;2023-09-18T03:23:29;14.73;;;13.50;;
13435;SDS011;6790;49.520;8.504;2023-09-18T03:25:55;13.30;;;12.52;;
13435;SDS011;6790;49.520;8.504;2023-09-18T03:28:20;13.30;;;12.40;;
13435;SDS011;6790;49.520;8.504;2023-09-18T03:30:46;13.18;;;11.93;;
13435;SDS011;6790;49.520;8.504;2023-09-18T03:33:12;12.43;;;11.43;;
13435;SDS011;6790;49.520;8.504;2023-09-18T03:35:50;10.98;;;10.07;;
13435;SDS011;6790;49.520;8.504;2023-09-18T03:38:19;13.57;;;12.60;;
13435;SDS011;6790;49.520;8.504;2023-09-18T03:40:46;8.07;;;7.38;;
13435;SDS011;6790;49.520;8.504;2023-09-18T03:43:12;9.75;;;9.07;;
13435;SDS011;6790;49.520;8.504;2023-09-18T03:45:38;15.73;;;14.52;;
13435;SDS011;6790;49.520;8.504;2023-09-18T03:48:06;8.88;;;8.07;;
13435;SDS011;6790;49.520;8.504;2023-09-18T03:50:32;14.27;;;13.10;;
13435;SDS011;6790;49.520;8.504;2023-09-18T03:52:58;10.52;;;9.63;;
13435;SDS011;6790;49.520;8.504;2023-09-18T03:55:24;13.77;;;12.68;;
13435;SDS011;6790;49.520;8.504;2023-09-18T03:57:51;13.40;;;12.50;;
13435;SDS011;6790;49.520;8.504;2023-09-18T04:00:17;11.70;;;10.85;;
13435;SDS011;6790;49.520;8.504;2023-09-18T04:02:43;21.42;;;18.90;;
13435;SDS011;6790;49.520;8.504;2023-09-18T04:05:09;14.77;;;13.43;;
13435;SDS011;6790;49.520;8.504;2023-09-18T04:07:34;11.43;;;10.35;;
13435;SDS011;6790;49.520;8.504;2023-09-18T04:10:00;11.40;;;10.30;;
13435;SDS011;6790;49.520;8.504;2023-09-18T04:12:27;7.72;;;6.75;;
13435;SDS011;6790;49.520;8.504;2023-09-18T04:14:53;10.63;;;8.27;;
13435;SDS011;6790;49.520;8.504;2023-09-18T04:17:18;13.65;;;12.75;;
13435;SDS011;6790;49.520;8.504;2023-09-18T04:19:46;9.05;;;8.15;;
13435;SDS011;6790;49.520;8.504;2023-09-18T04:22:12;11.95;;;10.85;;
13435;SDS011;6790;49.520;8.504;2023-09-18T04:24:37;14.57;;;13.30;;
13435;SDS011;6790;49.520;8.504;2023-09-18T04:27:03;11.30;;;8.65;;
13435;SDS011;6790;49.520;8.504;2023-09-18T04:29:29;10.40;;;9.27;;
13435;SDS011;6790;49.520;8.504;2023-09-18T04:31:54;16.48;;;15.15;;
13435;SDS011;6790;49.520;8.504;2023-09-18T04:34:20;13.68;;;12.32;;
13435;SDS011;6790;49.520;8.504;2023-09-18T04:36:47;14.13;;;12.38;;
13435;SDS011;6790;49.520;8.504;2023-09-18T04:39:13;11.93;;;8.80;;
13435;SDS011;6790;49.520;8.504;2023-09-18T04:41:39;18.02;;;16.33;;
13435;SDS011;6790;49.520;8.504;2023-09-18T04:44:04;12.88;;;11.43;;
13435;SDS011;6790;49.520;8.504;2023-09-18T04:46:30;8.98;;;8.10;;
13435;SDS011;6790;49.520;8.504;2023-09-18T04:48:56;12.80;;;9.80;;
13435;SDS011;6790;49.520;8.504;2023-09-18T04:51:22;12.80;;;10.15;;
13435;SDS011;6790;49.520;8.504;2023-09-18T04:53:47;10.23;;;9.45;;
13435;SDS011;6790;49.520;8.504;2023-09-18T04:56:13;13.32;;;12.13;;
13435;SDS011;6790;49.520;8.504;2023-09-18T04:58:39;11.00;;;10.10;;
13435;SDS011;6790;49.520;8.504;2023-09-18T05:01:05;11.95;;;8.48;;
13435;SDS011;6790;49.520;8.504;2023-09-18T05:03:35;12.82;;;11.80;;
13435;SDS011;6790;49.520;8.504;2023-09-18T05:06:01;12.52;;;11.52;;
13435;SDS011;6790;49.520;8.504;2023-09-18T05:08:30;8.90;;;7.95;;
13435;SDS011;6790;49.520;8.504;2023-09-18T05:10:56;13.60;;;12.23;;
13435;SDS011;6790;49.520;8.504;2023-09-18T05:13:22;11.93;;;10.18;;
13435;SDS011;6790;49.520;8.504;2023-09-18T05:15:48;11.98;;;10.00;;
13435;SDS011;6790;49.520;8.504;2023-09-18T05:18:14;11.30;;;9.52;;
13435;SDS011;6790;49.520;8.504;2023-09-18T05:20:39;8.60;;;6.97;;
13435;SDS011;6790;49.520;8.504;2023-09-18T05:23:05;11.55;;;10.63;;
13435;SDS011;6790;49.520;8.504;2023-09-18T05:25:31;12.00;;;10.82;;
13435;SDS011;6790;49.520;8.504;2023-09-18T05:27:58;14.52;;;12.25;;
13435;SDS011;6790;49.520;8.504;2023-09-18T05:30:26;14.15;;;12.65;;
13435;SDS011;6790;49.520;8.504;2023-09-18T05:33:00;14.75;;;11.02;;
13435;SDS011;6790;49.520;8.504;2023-09-18T05:35:34;13.35;;;12.00;;
13435;SDS011;6790;49.520;8.504;2023-09-18T05:38:02;11.45;;;10.52;;
13435;SDS011;6790;49.520;8.504;2023-09-18T05:40:28;8.50;;;7.38;;
13435;SDS011;6790;49.520;8.504;2023-09-18T05:42:55;10.15;;;9.23;;
13435;SDS011;6790;49.520;8.504;2023-09-18T05:45:21;14.18;;;12.27;;
13435;SDS011;6790;49.520;8.504;2023-09-18T05:47:47;12.60;;;11.40;;
13435;SDS011;6790;49.520;8.504;2023-09-18T05:50:15;11.93;;;10.48;;
13435;SDS011;6790;49.520;8.504;2023-09-18T05:52:45;10.63;;;7.07;;
13435;SDS011;6790;49.520;8.504;2023-09-18T05:55:13;11.23;;;6.72;;
13435;SDS011;6790;49.520;8.504;2023-09-18T05:57:40;11.90;;;11.07;;
13435;SDS011;6790;49.520;8.504;2023-09-18T06:00:06;11.85;;;7.30;;
13435;SDS011;6790;49.520;8.504;2023-09-18T06:02:33;11.02;;;8.80;;
13435;SDS011;6790;49.520;8.504;2023-09-18T06:04:59;13.77;;;12.48;;
13435;SDS011;6790;49.520;8.504;2023-09-18T06:07:26;12.70;;;11.73;;
13435;SDS011;6790;49.520;8.504;2023-09-18T06:09:52;12.38;;;11.35;;
13435;SDS011;6790;49.520;8.504;2023-09-18T06:12:18;11.32;;;9.40;;
13435;SDS011;6790;49.520;8.504;2023-09-18T06:14:44;10.80;;;9.60;;
13435;SDS011;6790;49.520;8.504;2023-09-18T06:17:11;7.18;;;6.50;;
13435;SDS011;6790;49.520;8.504;2023-09-18T06:19:37;22.02;;;18.50;;
13435;SDS011;6790;49.520;8.504;2023-09-18T06:22:04;10.13;;;5.55;;
13435;SDS011;6790;49.520;8.504;2023-09-18T06:24:29;9.60;;;8.73;;
13435;SDS011;6790;49.520;8.504;2023-09-18T06:26:55;10.95;;;10.05;;
13435;SDS011;6790;49.520;8.504;2023-09-18T06:29:21;8.35;;;7.57;;
13435;SDS011;6790;49.520;8.504;2023-09-18T06:31:46;12.60;;;11.52;;
13435;SDS011;6790;49.520;8.504;2023-09-18T06:34:14;12.43;;;11.43;;
13435;SDS011;6790;49.520;8.504;2023-09-18T06:36:40;11.00;;;10.00;;
13435;SDS011;6790;49.520;8.504;2023-09-18T06:39:06;7.93;;;7.07;;
13435;SDS011;6790;49.520;8.504;2023-09-18T06:41:32;8.80;;;8.18;;
13435;SDS011;6790;49.520;8.504;2023-09-18T06:43:58;13.43;;;12.20;;
13435;SDS011;6790;49.520;8.504;2023-09-18T06:46:28;16.52;;;15.55;;
13435;SDS011;6790;49.520;8.504;2023-09-18T06:48:55;11.68;;;10.48;;
13435;SDS011;6790;49.520;8.504;2023-09-18T06:51:21;15.10;;;13.95;;
13435;SDS011;6790;49.520;8.504;2023-09-18T06:53:48;8.63;;;6.30;;
13435;SDS011;6790;49.520;8.504;2023-09-18T06:56:14;11.02;;;10.10;;
13435;SDS011;6790;49.520;8.504;2023-09-18T06:58:39;9.52;;;5.95;;
13435;SDS011;6790;49.520;8.504;2023-09-18T07:01:05;9.77;;;7.47;;
13435;SDS011;6790;49.520;8.504;2023-09-18T07:03:32;8.50;;;7.75;;
13435;SDS011;6790;49.520;8.504;2023-09-18T07:06:00;6.82;;;6.22;;
13435;SDS011;6790;49.520;8.504;2023-09-18T07:08:26;13.35;;;12.32;;
13435;SDS011;6790;49.520;8.504;2023-09-18T07:10:51;9.15;;;8.45;;
13435;SDS011;6790;49.520;8.504;2023-09-18T07:13:17;11.50;;;10.55;;
13435;SDS011;6790;49.520;8.504;2023-09-18T07:15:43;16.42;;;15.40;;
13435;SDS011;6790;49.520;8.504;2023-09-18T07:18:11;10.75;;;10.07;;
13435;SDS011;6790;49.520;8.504;2023-09-18T07:20:43;28.83;;;26.65;;
13435;SDS011;6790;49.520;8.504;2023-09-18T07:23:10;12.02;;;11.15;;
13435;SDS011;6790;49.520;8.504;2023-09-18T07:25:35;11.43;;;10.43;;
13435;SDS011;6790;49.520;8.504;2023-09-18T07:28:05;9.98;;;9.18;;
13435;SDS011;6790;49.520;8.504;2023-09-18T07:30:31;13.93;;;12.93;;
13435;SDS011;6790;49.520;8.504;2023-09-18T07:32:58;10.95;;;10.15;;
13435;SDS011;6790;49.520;8.504;2023-09-18T07:35:25;14.13;;;13.13;;
13435;SDS011;6790;49.520;8.504;2023-09-18T07:37:51;16.23;;;14.68;;
13435;SDS011;6790;49.520;8.504;2023-09-18T07:40:17;13.13;;;12.15;;
13435;SDS011;6790;49.520;8.504;2023-09-18T07:42:42;11.68;;;10.73;;
13435;SDS011;6790;49.520;8.504;2023-09-18T07:45:09;10.85;;;9.45;;
13435;SDS011;6790;49.520;8.504;2023-09-18T07:47:35;18.98;;;17.35;;
13435;SDS011;6790;49.520;8.504;2023-09-18T07:50:01;19.92;;;18.52;;
13435;SDS011;6790;49.520;8.504;2023-09-18T07:52:27;7.95;;;7.07;;
13435;SDS011;6790;49.520;8.504;2023-09-18T07:54:54;10.80;;;9.90;;
13435;SDS011;6790;49.520;8.504;2023-09-18T07:57:20;10.90;;;10.20;;
13435;SDS011;6790;49.520;8.504;2023-09-18T07:59:48;7.25;;;6.70;;
13435;SDS011;6790;49.520;8.504;2023-09-18T08:02:13;6.55;;;5.97;;
13435;SDS011;6790;49.520;8.504;2023-09-18T08:04:39;9.98;;;9.07;;
13435;SDS011;6790;49.520;8.504;2023-09-18T08:07:07;4.78;;;3.25;;
13435;SDS011;6790;49.520;8.504;2023-09-18T08:09:33;14.20;;;13.05;;
13435;SDS011;6790;49.520;8.504;2023-09-18T08:12:05;11.88;;;10.63;;
13435;SDS011;6790;49.520;8.504;2023-09-18T08:14:32;9.90;;;9.18;;
13435;SDS011;6790;49.520;8.504;2023-09-18T08:17:00;18.00;;;16.70;;
13435;SDS011;6790;49.520;8.504;2023-09-18T08:19:27;8.88;;;8.27;;
13435;SDS011;6790;49.520;8.504;2023-09-18T08:21:53;12.25;;;11.35;;
13435;SDS011;6790;49.520;8.504;2023-09-18T08:24:21;15.23;;;14.23;;
13435;SDS011;6790;49.520;8.504;2023-09-18T08:26:49;15.02;;;13.98;;
13435;SDS011;6790;49.520;8.504;2023-09-18T08:29:15;13.13;;;12.13;;
13435;SDS011;6790;49.520;8.504;2023-09-18T08:31:41;12.68;;;11.57;;
13435;SDS011;6790;49.520;8.504;2023-09-18T08:34:07;14.35;;;13.25;;
13435;SDS011;6790;49.520;8.504;2023-09-18T08:36:33;11.57;;;10.60;;
13435;SDS011;6790;49.520;8.504;2023-09-18T08:38:58;9.23;;;8.48;;
13435;SDS011;6790;49.520;8.504;2023-09-18T08:41:24;14.52;;;13.60;;
13435;SDS011;6790;49.520;8.504;2023-09-18T08:43:56;10.60;;;9.85;;
13435;SDS011;6790;49.520;8.504;2023-09-18T08:46:28;10.00;;;9.40;;
13435;SDS011;6790;49.520;8.504;2023-09-18T08:48:54;15.38;;;14.05;;
13435;SDS011;6790;49.520;8.504;2023-09-18T08:51:22;11.18;;;10.43;;
13435;SDS011;6790;49.520;8.504;2023-09-18T08:53:48;17.17;;;15.88;;
13435;SDS011;6790;49.520;8.504;2023-09-18T08:56:14;16.15;;;14.73;;
13435;SDS011;6790;49.520;8.504;2023-09-18T08:58:42;12.52;;;11.65;;
13435;SDS011;6790;49.520;8.504;2023-09-18T09:01:09;10.93;;;10.10;;
13435;SDS011;6790;49.520;8.504;2023-09-18T09:03:37;7.03;;;6.57;;
13435;SDS011;6790;49.520;8.504;2023-09-18T09:06:05;16.60;;;15.55;;
13435;SDS011;6790;49.520;8.504;2023-09-18T09:08:31;13.00;;;12.13;;
13435;SDS011;6790;49.520;8.504;2023-09-18T09:10:57;9.85;;;9.15;;
13435;SDS011;6790;49.520;8.504;2023-09-18T09:13:23;16.13;;;15.07;;
13435;SDS011;6790;49.520;8.504;2023-09-18T09:15:51;10.73;;;10.07;;
13435;SDS011;6790;49.520;8.504;2023-09-18T09:18:21;19.55;;;18.33;;
13435;SDS011;6790;49.520;8.504;2023-09-18T09:23:26;8.65;;;5.80;;
13435;SDS011;6790;49.520;8.504;2023-09-18T09:26:00;15.77;;;14.70;;
13435;SDS011;6790;49.520;8.504;2023-09-18T09:28:38;17.85;;;16.48;;
13435;SDS011;6790;49.520;8.504;2023-09-18T09:31:04;10.30;;;9.63;;
13435;SDS011;6790;49.520;8.504;2023-09-18T09:33:30;13.25;;;12.13;;
13435;SDS011;6790;49.520;8.504;2023-09-18T09:35:56;9.10;;;8.30;;
13435;SDS011;6790;49.520;8.504;2023-09-18T09:38:29;18.80;;;17.45;;
13435;SDS011;6790;49.520;8.504;2023-09-18T09:40:59;16.45;;;15.40;;
13435;SDS011;6790;49.520;8.504;2023-09-18T09:43:32;9.45;;;8.77;;
13435;SDS011;6790;49.520;8.504;2023-09-18T09:46:01;10.93;;;10.07;;
13435;SDS011;6790;49.520;8.504;2023-09-18T09:48:28;14.70;;;13.63;;
13435;SDS011;6790;49.520;8.504;2023-09-18T09:50:58;14.50;;;13.60;;
13435;SDS011;6790;49.520;8.504;2023-09-18T09:53:44;10.88;;;10.18;;
13435;SDS011;6790;49.520;8.504;2023-09-18T09:56:13;16.23;;;15.15;;
13435;SDS011;6790;49.520;8.504;2023-09-18T09:58:40;11.85;;;11.10;;
13435;SDS011;6790;49.520;8.504;2023-09-18T10:01:11;18.38;;;17.23;;
13435;SDS011;6790;49.520;8.504;2023-09-18T10:03:42;9.35;;;8.57;;
13435;SDS011;6790;49.520;8.504;2023-09-18T10:06:09;14.65;;;13.75;;
13435;SDS011;6790;49.520;8.504;2023-09-18T10:08:38;10.90;;;9.93;;
13435;SDS011;6790;49.520;8.504;2023-09-18T10:11:06;13.68;;;12.82;;
13435;SDS011;6790;49.520;8.504;2023-09-18T10:13:55;12.88;;;11.95;;
13435;SDS011;6790;49.520;8.504;2023-09-18T10:16:25;15.50;;;14.57;;
13435;SDS011;6790;49.520;8.504;2023-09-18T10:24:29;15.07;;;14.00;;
13435;SDS011;6790;49.520;8.504;2023-09-18T10:27:02;15.32;;;14.30;;
13435;SDS011;6790;49.520;8.504;2023-09-18T10:29:32;14.55;;;13.65;;
13435;SDS011;6790;49.520;8.504;2023-09-18T10:31:59;15.23;;;14.15;;
13435;SDS011;6790;49.520;8.504;2023-09-18T10:34:29;12.40;;;11.63;;
13435;SDS011;6790;49.520;8.504;2023-09-18T10:36:58;20.38;;;19.20;;
13435;SDS011;6790;49.520;8.504;2023-09-18T10:39:26;16.10;;;14.75;;
13435;SDS011;6790;49.520;8.504;2023-09-18T10:41:54;23.38;;;21.98;;
13435;SDS011;6790;49.520;8.504;2023-09-18T10:44:26;20.20;;;18.75;;
13435;SDS011;6790;49.520;8.504;2023-09-18T10:46:53;24.65;;;23.15;;
13435;SDS011;6790;49.520;8.504;2023-09-18T10:49:20;25.95;;;24.15;;
13435;SDS011;6790;49.520;8.504;2023-09-18T10:51:47;16.58;;;15.48;;
13435;SDS011;6790;49.520;8.504;2023-09-18T10:54:20;13.35;;;12.00;;
13435;SDS011;6790;49.520;8.504;2023-09-18T10:56:48;16.60;;;15.60;;
13435;SDS011;6790;49.520;8.504;2023-09-18T10:59:15;19.30;;;18.10;;
13435;SDS011;6790;49.520;8.504;2023-09-18T11:01:42;19.25;;;18.15;;
13435;SDS011;6790;49.520;8.504;2023-09-18T11:04:08;26.35;;;24.70;;
13435;SDS011;6790;49.520;8.504;2023-09-18T11:09:28;20.13;;;18.83;;
13435;SDS011;6790;49.520;8.504;2023-09-18T11:22:34;21.58;;;19.98;;
13435;SDS011;6790;49.520;8.504;2023-09-18T11:28:02;21.80;;;20.45;;
13435;SDS011;6790;49.520;8.504;2023-09-18T11:30:32;23.40;;;21.90;;
13435;SDS011;6790;49.520;8.504;2023-09-18T11:33:04;23.63;;;22.08;;
13435;SDS011;6790;49.520;8.504;2023-09-18T11:35:34;24.05;;;22.65;;
13435;SDS011;6790;49.520;8.504;2023-09-18T11:38:03;33.55;;;31.20;;
13435;SDS011;6790;49.520;8.504;2023-09-18T11:40:38;27.77;;;25.77;;
13435;SDS011;6790;49.520;8.504;2023-09-18T11:43:22;31.80;;;29.75;;
13435;SDS011;6790;49.520;8.504;2023-09-18T11:45:54;19.08;;;17.83;;
13435;SDS011;6790;49.520;8.504;2023-09-18T11:48:23;30.85;;;29.15;;
13435;SDS011;6790;49.520;8.504;2023-09-18T11:50:52;25.67;;;24.27;;
13435;SDS011;6790;49.520;8.504;2023-09-18T11:53:19;28.55;;;26.90;;
13435;SDS011;6790;49.520;8.504;2023-09-18T11:55:46;37.25;;;35.05;;
13435;SDS011;6790;49.520;8.504;2023-09-18T11:58:13;34.83;;;32.72;;
13435;SDS011;6790;49.520;8.504;2023-09-18T12:00:39;28.13;;;26.45;;
13435;SDS011;6790;49.520;8.504;2023-09-18T12:03:17;27.02;;;25.38;;
13435;SDS011;6790;49.520;8.504;2023-09-18T12:05:52;30.58;;;28.80;;
13435;SDS011;6790;49.520;8.504;2023-09-18T12:08:31;30.58;;;28.75;;
13435;SDS011;6790;49.520;8.504;2023-09-18T12:10:57;29.70;;;27.95;;
13435;SDS011;6790;49.520;8.504;2023-09-18T12:13:26;29.20;;;27.35;;
13435;SDS011;6790;49.520;8.504;2023-09-18T12:16:03;32.10;;;30.33;;
13435;SDS011;6790;49.520;8.504;2023-09-18T12:18:34;27.75;;;26.02;;
13435;SDS011;6790;49.520;8.504;2023-09-18T12:21:02;30.67;;;28.80;;
13435;SDS011;6790;49.520;8.504;2023-09-18T12:23:38;29.98;;;28.35;;
13435;SDS011;6790;49.520;8.504;2023-09-18T12:26:04;25.70;;;23.92;;
13435;SDS011;6790;49.520;8.504;2023-09-18T12:28:32;23.02;;;21.70;;
13435;SDS011;6790;49.520;8.504;2023-09-18T12:31:00;26.15;;;24.50;;
13435;SDS011;6790;49.520;8.504;2023-09-18T12:33:30;22.23;;;20.77;;
13435;SDS011;6790;49.520;8.504;2023-09-18T12:36:00;16.08;;;15.13;;
13435;SDS011;6790;49.520;8.504;2023-09-18T12:38:27;31.20;;;29.45;;
13435;SDS011;6790;49.520;8.504;2023-09-18T12:40:55;29.95;;;28.10;;
13435;SDS011;6790;49.520;8.504;2023-09-18T12:43:21;43.90;;;41.13;;
13435;SDS011;6790;49.520;8.504;2023-09-18T12:45:48;30.15;;;28.42;;
13435;SDS011;6790;49.520;8.504;2023-09-18T12:48:15;27.50;;;25.90;;
13435;SDS011;6790;49.520;8.504;2023-09-18T12:50:41;23.73;;;22.33;;
13435;SDS011;6790;49.520;8.504;2023-09-18T12:53:08;23.52;;;22.10;;
13435;SDS011;6790;49.520;8.504;2023-09-18T12:55:42;22.83;;;21.48;;
13435;SDS011;6790;49.520;8.504;2023-09-18T12:58:11;24.27;;;22.55;;
13435;SDS011;6790;49.520;8.504;2023-09-18T13:00:37;29.77;;;27.98;;
13435;SDS011;6790;49.520;8.504;2023-09-18T13:03:11;19.33;;;17.90;;
13435;SDS011;6790;49.520;8.504;2023-09-18T13:05:38;32.33;;;30.35;;
13435;SDS011;6790;49.520;8.504;2023-09-18T13:08:04;26.35;;;24.83;;
13435;SDS011;6790;49.520;8.504;2023-09-18T13:13:28;20.85;;;19.45;;
13435;SDS011;6790;49.520;8.504;2023-09-18T13:15:57;24.00;;;22.65;;
13435;SDS011;6790;49.520;8.504;2023-09-18T13:18:24;25.13;;;23.60;;
13435;SDS011;6790;49.520;8.504;2023-09-18T13:20:51;21.77;;;20.42;;
13435;SDS011;6790;49.520;8.504;2023-09-18T13:23:17;32.03;;;30.23;;
13435;SDS011;6790;49.520;8.504;2023-09-18T13:25:43;33.70;;;31.88;;
13435;SDS011;6790;49.520;8.504;2023-09-18T13:28:11;35.30;;;33.28;;
13435;SDS011;6790;49.520;8.504;2023-09-18T13:30:40;27.98;;;26.25;;
13435;SDS011;6790;49.520;8.504;2023-09-18T13:33:10;30.23;;;28.38;;
13435;SDS011;6790;49.520;8.504;2023-09-18T13:35:41;25.23;;;23.58;;
13435;SDS011;6790;49.520;8.504;2023-09-18T13:38:09;25.40;;;23.88;;
13435;SDS011;6790;49.520;8.504;2023-09-18T13:40:36;23.90;;;22.35;;
13435;SDS011;6790;49.520;8.504;2023-09-18T13:43:04;33.55;;;31.52;;
13435;SDS011;6790;49.520;8.504;2023-09-18T13:45:34;21.67;;;20.42;;
13435;SDS011;6790;49.520;8.504;2023-09-18T13:48:01;28.02;;;26.17;;
13435;SDS011;6790;49.520;8.504;2023-09-18T13:50:34;34.35;;;32.22;;
13435;SDS011;6790;49.520;8.504;2023-09-18T13:53:01;22.70;;;21.40;;
13435;SDS011;6790;49.520;8.504;2023-09-18T13:55:32;24.90;;;23.42;;
13435;SDS011;6790;49.520;8.504;2023-09-18T13:57:58;20.77;;;19.48;;
13435;SDS011;6790;49.520;8.504;2023-09-18T14:00:24;32.35;;;30.30;;
13435;SDS011;6790;49.520;8.504;2023-09-18T14:02:51;27.92;;;26.23;;
13435;SDS011;6790;49.520;8.504;2023-09-18T14:05:17;27.15;;;25.40;;
13435;SDS011;6790;49.520;8.504;2023-09-18T14:07:42;28.20;;;26.58;;
13435;SDS011;6790;49.520;8.504;2023-09-18T14:10:09;32.90;;;30.90;;
13435;SDS011;6790;49.520;8.504;2023-09-18T14:12:36;25.52;;;24.08;;
13435;SDS011;6790;49.520;8.504;2023-09-18T14:15:04;23.48;;;22.15;;
13435;SDS011;6790;49.520;8.504;2023-09-18T14:17:34;27.83;;;26.20;;
13435;SDS011;6790;49.520;8.504;2023-09-18T14:20:00;28.15;;;26.45;;
13435;SDS011;6790;49.520;8.504;2023-09-18T14:22:31;22.75;;;21.42;;
13435;SDS011;6790;49.520;8.504;2023-09-18T14:24:58;24.55;;;23.10;;
13435;SDS011;6790;49.520;8.504;2023-09-18T14:27:23;34.15;;;32.13;;
13435;SDS011;6790;49.520;8.504;2023-09-18T14:29:49;31.75;;;29.90;;
13435;SDS011;6790;49.520;8.504;2023-09-18T14:32:15;36.42;;;34.22;;
13435;SDS011;6790;49.520;8.504;2023-09-18T14:34:41;32.97;;;30.63;;
13435;SDS011;6790;49.520;8.504;2023-09-18T14:37:07;24.30;;;22.88;;
13435;SDS011;6790;49.520;8.504;2023-09-18T14:39:32;28.42;;;26.63;;
13435;SDS011;6790;49.520;8.504;2023-09-18T14:41:59;26.05;;;24.63;;
13435;SDS011;6790;49.520;8.504;2023-09-18T14:44:27;28.35;;;26.63;;
13435;SDS011;6790;49.520;8.504;2023-09-18T14:46:53;38.00;;;35.55;;
13435;SDS011;6790;49.520;8.504;2023-09-18T14:49:20;28.08;;;26.40;;
13435;SDS011;6790;49.520;8.504;2023-09-18T14:51:45;30.67;;;28.83;;
13435;SDS011;6790;49.520;8.504;2023-09-18T14:54:12;29.58;;;27.85;;
13435;SDS011;6790;49.520;8.504;2023-09-18T14:56:39;21.73;;;20.50;;
13435;SDS011;6790;49.520;8.504;2023-09-18T14:59:05;29.98;;;28.13;;
13435;SDS011;6790;49.520;8.504;2023-09-18T15:01:32;27.17;;;25.52;;
13435;SDS011;6790;49.520;8.504;2023-09-18T15:03:58;23.02;;;21.63;;
13435;SDS011;6790;49.520;8.504;2023-09-18T15:06:24;21.50;;;20.20;;